Nellysford, Virginia
Current Conditions -  °F | °C
As of 9:15 AM on Thursday 29 Jan 2015 (Local Time) from KW13 Reporting Station
Broken Clouds Broken Clouds  
Wind Chill: 27°   Ceiling: 10000
Heat Index: 27°   Visibility: 10mi
Dew Point: 18°   Wind: 0mph
Humidity: 68%   Direction: NA
Pressure: 30.22"   Gusts: NA
Location:  37.91°N, 78.87°W
Report Text: KW13 291415Z AUTO 00000KT 10SM BKN100 M03/M08 A3022 RMK AO1 T10291080
Loading
Personal Weather Stations






























Interactive Weather Map New forecast layout! Learn more

10-Day Weather Forecast

Advertisements
Track Severe Weather on mobile